createdAt,value
2017-10-04T00:00:02.483Z,12.00
2017-10-04T00:02:31.707Z,11.90
2017-10-04T00:04:59.810Z,11.90
2017-10-04T00:07:27.887Z,11.90
2017-10-04T00:09:56.727Z,11.80
2017-10-04T00:12:24.842Z,11.60
2017-10-04T00:14:52.923Z,11.70
2017-10-04T00:17:21.410Z,11.70
2017-10-04T00:19:50.279Z,11.70
2017-10-04T00:22:18.359Z,11.80
2017-10-04T00:24:46.459Z,11.70
2017-10-04T00:29:43.982Z,11.60
2017-10-04T00:32:12.063Z,11.60
2017-10-04T00:34:40.236Z,11.70
2017-10-04T00:37:08.412Z,11.70
2017-10-04T00:39:36.607Z,11.80
2017-10-04T00:42:04.679Z,11.80
2017-10-04T00:44:32.831Z,11.70
2017-10-04T00:47:01.684Z,11.60
2017-10-04T00:49:29.779Z,11.60
2017-10-04T00:51:57.882Z,11.50
2017-10-04T00:54:27.466Z,11.60
2017-10-04T00:56:55.563Z,11.60
2017-10-04T00:59:23.643Z,11.60
2017-10-04T01:01:51.734Z,11.60
2017-10-04T01:04:20.578Z,11.60
2017-10-04T01:06:49.070Z,11.60
2017-10-04T01:09:17.939Z,11.60
2017-10-04T01:11:46.426Z,11.60
2017-10-04T01:14:14.515Z,11.40
2017-10-04T01:16:42.646Z,11.50
2017-10-04T01:19:11.854Z,11.40
2017-10-04T01:21:39.941Z,11.30
2017-10-04T01:24:08.036Z,11.30
2017-10-04T01:26:36.102Z,11.30
2017-10-04T01:29:04.190Z,11.30
2017-10-04T01:31:32.261Z,11.20
2017-10-04T01:34:00.363Z,11.20
2017-10-04T01:38:58.922Z,11.20
2017-10-04T01:41:27.014Z,11.10
2017-10-04T01:43:56.596Z,11.30
2017-10-04T01:46:24.693Z,11.30
2017-10-04T01:48:53.531Z,11.10
2017-10-04T01:51:21.602Z,11.20
2017-10-04T01:53:49.689Z,11.10
2017-10-04T01:56:17.786Z,11.00
2017-10-04T01:58:46.642Z,10.90
2017-10-04T02:01:15.110Z,11.00
2017-10-04T02:03:43.194Z,11.10
2017-10-04T02:06:11.690Z,11.10
2017-10-04T02:08:39.772Z,11.10
2017-10-04T02:11:07.842Z,11.10
2017-10-04T02:13:37.442Z,11.10
2017-10-04T02:16:05.513Z,11.10
2017-10-04T02:18:33.630Z,11.30
2017-10-04T02:21:02.469Z,11.30
2017-10-04T02:23:31.686Z,11.30
2017-10-04T02:25:59.773Z,11.20
2017-10-04T02:28:28.609Z,11.10
2017-10-04T02:30:56.733Z,11.20
2017-10-04T02:35:54.158Z,11.30
2017-10-04T02:38:22.258Z,11.20
2017-10-04T02:40:50.329Z,11.00
2017-10-04T02:43:18.794Z,11.00
2017-10-04T02:45:46.885Z,11.10
2017-10-04T02:48:14.962Z,11.00
2017-10-04T02:50:43.054Z,11.10
2017-10-04T02:53:11.894Z,11.00
2017-10-04T02:55:41.517Z,11.10
2017-10-04T02:58:09.581Z,11.10
2017-10-04T03:00:37.658Z,11.10
2017-10-04T03:03:05.750Z,11.20
2017-10-04T03:05:34.237Z,11.20
2017-10-04T03:08:02.313Z,11.20
2017-10-04T03:10:30.385Z,11.10
2017-10-04T03:12:58.870Z,11.10
2017-10-04T03:15:26.946Z,10.90
2017-10-04T03:17:55.041Z,10.90
2017-10-04T03:20:23.893Z,10.90
2017-10-04T03:22:52.050Z,10.70
2017-10-04T03:25:20.225Z,10.60
2017-10-04T03:27:48.398Z,10.70
2017-10-04T03:30:16.575Z,10.70
2017-10-04T03:32:45.085Z,10.70
2017-10-04T03:35:14.049Z,10.60
2017-10-04T03:37:42.889Z,10.60
2017-10-04T03:40:11.413Z,10.60
2017-10-04T03:42:39.910Z,10.40
2017-10-04T03:45:08.083Z,10.40
2017-10-04T03:47:36.954Z,10.50
2017-10-04T03:50:05.054Z,10.50
2017-10-04T03:52:33.120Z,10.70
2017-10-04T03:55:01.614Z,10.60
2017-10-04T03:57:29.718Z,10.60
2017-10-04T03:59:58.557Z,10.50
2017-10-04T04:02:26.630Z,10.60
2017-10-04T04:04:55.201Z,10.70
2017-10-04T04:07:23.627Z,10.60
2017-10-04T04:09:52.467Z,10.50
2017-10-04T04:12:20.559Z,10.40
2017-10-04T04:14:48.662Z,10.40
2017-10-04T04:19:46.462Z,10.40
2017-10-04T04:22:14.578Z,10.50
2017-10-04T04:24:44.149Z,10.40
2017-10-04T04:27:12.230Z,10.40
2017-10-04T04:29:40.338Z,10.30
2017-10-04T04:32:08.410Z,10.20
2017-10-04T04:34:36.518Z,10.20
2017-10-04T04:39:33.940Z,10.20
2017-10-04T04:42:02.033Z,10.30
2017-10-04T04:44:30.102Z,10.30
2017-10-04T04:46:58.197Z,10.20
2017-10-04T04:49:26.662Z,10.20
2017-10-04T04:51:54.757Z,10.10
2017-10-04T04:54:23.217Z,9.90
2017-10-04T04:56:51.689Z,9.80
2017-10-04T04:59:19.770Z,9.80
2017-10-04T05:01:47.842Z,9.80
2017-10-04T05:09:14.629Z,9.90
2017-10-04T05:11:42.705Z,9.90
2017-10-04T05:14:11.538Z,9.90
2017-10-04T05:19:09.019Z,10.00
2017-10-04T05:21:37.858Z,10.10
2017-10-04T05:24:07.446Z,9.90
2017-10-04T05:26:35.509Z,9.70
2017-10-04T05:29:03.598Z,9.70
2017-10-04T05:31:31.691Z,9.70
2017-10-04T05:33:59.796Z,9.70
2017-10-04T05:36:27.918Z,9.60
2017-10-04T05:38:57.495Z,9.60
2017-10-04T05:41:25.766Z,9.50
2017-10-04T05:43:54.621Z,9.40
2017-10-04T05:46:23.458Z,9.40
2017-10-04T05:48:51.522Z,9.40
2017-10-04T05:51:19.614Z,9.30
2017-10-04T05:53:47.681Z,9.20
2017-10-04T05:56:16.516Z,9.20
2017-10-04T05:58:44.997Z,9.10
2017-10-04T06:01:13.457Z,9.20
2017-10-04T06:03:41.546Z,9.30
2017-10-04T06:06:10.422Z,9.40
2017-10-04T06:08:38.485Z,9.50
2017-10-04T06:11:06.562Z,9.50
2017-10-04T06:13:35.058Z,9.60
2017-10-04T06:16:03.898Z,9.60
2017-10-04T06:18:31.965Z,9.70
2017-10-04T06:21:00.050Z,9.80
2017-10-04T06:23:28.885Z,9.90
2017-10-04T06:25:57.746Z,10.00
2017-10-04T06:28:27.325Z,10.10
2017-10-04T06:30:55.425Z,10.10
2017-10-04T06:33:23.501Z,10.10
2017-10-04T06:35:51.977Z,10.00
2017-10-04T06:38:20.086Z,10.20
2017-10-04T06:40:48.930Z,10.20
2017-10-04T06:43:17.010Z,10.20
2017-10-04T06:45:45.110Z,10.30
2017-10-04T06:48:13.954Z,10.30
2017-10-04T06:50:42.793Z,10.40
2017-10-04T06:53:11.654Z,10.40
2017-10-04T06:55:40.122Z,10.40
2017-10-04T06:58:08.616Z,10.40
2017-10-04T07:00:36.692Z,10.40
2017-10-04T07:03:04.781Z,10.40
2017-10-04T07:05:32.874Z,10.40
2017-10-04T07:08:01.737Z,10.50
2017-10-04T07:10:29.809Z,10.50
2017-10-04T07:12:57.897Z,10.50
2017-10-04T07:15:26.365Z,10.50
2017-10-04T07:17:54.457Z,10.50
2017-10-04T07:20:23.322Z,10.50
2017-10-04T07:22:51.406Z,10.50
2017-10-04T07:25:19.474Z,10.70
2017-10-04T07:27:48.358Z,10.70
2017-10-04T07:30:17.941Z,10.80
2017-10-04T07:32:46.421Z,10.90
2017-10-04T07:35:14.538Z,11.20
2017-10-04T07:37:43.393Z,11.50
2017-10-04T07:40:11.493Z,11.80
2017-10-04T07:42:40.338Z,11.90
2017-10-04T07:45:09.177Z,12.00
2017-10-04T07:47:38.784Z,12.20
2017-10-04T07:50:06.854Z,12.30
2017-10-04T07:52:35.708Z,12.40
2017-10-04T07:55:03.782Z,12.30
2017-10-04T07:57:33.678Z,12.10
2017-10-04T08:00:01.750Z,12.10
2017-10-04T08:02:30.614Z,12.10
2017-10-04T08:04:59.458Z,12.20
2017-10-04T08:07:27.557Z,12.30
2017-10-04T08:09:56.398Z,12.50
2017-10-04T08:12:24.494Z,12.40
2017-10-04T08:14:52.573Z,12.30
2017-10-04T08:17:21.422Z,12.30
2017-10-04T08:19:49.522Z,12.30
2017-10-04T08:22:17.598Z,12.10
2017-10-04T08:24:46.434Z,12.30
2017-10-04T08:27:14.531Z,12.40
2017-10-04T08:29:42.626Z,12.50
2017-10-04T08:32:11.466Z,12.60
2017-10-04T08:34:39.545Z,12.80
2017-10-04T08:37:08.766Z,12.80
2017-10-04T08:39:36.846Z,12.90
2017-10-04T08:42:05.022Z,13.00
2017-10-04T08:44:33.839Z,13.30
2017-10-04T08:47:13.837Z,13.70
2017-10-04T08:49:41.918Z,14.30
2017-10-04T08:52:09.989Z,14.00
2017-10-04T08:54:38.077Z,13.70
2017-10-04T08:57:06.166Z,13.60
2017-10-04T08:59:34.237Z,13.70
2017-10-04T09:02:02.317Z,13.90
2017-10-04T09:04:42.311Z,14.10
2017-10-04T09:07:10.402Z,14.30
2017-10-04T09:09:38.478Z,14.60
2017-10-04T09:12:06.569Z,14.80
2017-10-04T09:14:34.645Z,15.20
2017-10-04T09:17:03.505Z,15.30
2017-10-04T09:19:31.597Z,15.60
2017-10-04T09:21:59.700Z,15.80
2017-10-04T09:24:27.765Z,15.70
2017-10-04T09:26:55.838Z,15.60
2017-10-04T09:29:24.310Z,15.10
2017-10-04T09:31:52.406Z,14.90
2017-10-04T09:34:20.506Z,14.90
2017-10-04T09:36:48.577Z,15.40
2017-10-04T09:39:16.649Z,16.10
2017-10-04T09:41:44.742Z,16.30
2017-10-04T09:44:12.818Z,16.30
2017-10-04T09:46:41.678Z,16.40
2017-10-04T09:49:10.538Z,16.40
2017-10-04T09:51:38.622Z,16.50
2017-10-04T09:54:06.729Z,16.40
2017-10-04T09:56:34.830Z,15.80
2017-10-04T09:59:02.898Z,15.50
2017-10-04T10:01:31.762Z,15.30
2017-10-04T10:03:59.841Z,15.00
2017-10-04T10:06:27.930Z,14.70
2017-10-04T10:08:56.790Z,14.70
2017-10-04T10:11:24.861Z,14.80
2017-10-04T10:13:52.963Z,14.70
2017-10-04T10:18:50.382Z,14.70
2017-10-04T10:21:19.614Z,14.70
2017-10-04T10:23:48.445Z,14.70
2017-10-04T10:26:16.533Z,14.70
2017-10-04T10:28:44.604Z,14.90
2017-10-04T10:31:12.694Z,15.10
2017-10-04T10:33:41.530Z,15.40
2017-10-04T10:36:09.613Z,15.70
2017-10-04T10:38:37.727Z,15.60
2017-10-04T10:43:35.200Z,15.30
2017-10-04T10:46:04.054Z,15.30
2017-10-04T10:48:32.638Z,15.40
2017-10-04T10:51:01.483Z,15.40
2017-10-04T10:53:29.574Z,15.60
2017-10-04T10:55:58.777Z,15.70
2017-10-04T10:58:28.018Z,15.60
2017-10-04T11:00:56.486Z,15.80
2017-10-04T11:03:24.958Z,16.40
2017-10-04T11:05:53.458Z,16.50
2017-10-04T11:08:21.536Z,16.70
2017-10-04T11:10:49.615Z,16.60
2017-10-04T11:13:18.106Z,16.70
2017-10-04T11:15:46.946Z,16.80
2017-10-04T11:18:15.018Z,16.70
2017-10-04T11:20:43.105Z,16.60
2017-10-04T11:23:11.569Z,16.90
2017-10-04T11:25:39.673Z,17.00
2017-10-04T11:28:07.741Z,17.10
2017-10-04T11:30:35.821Z,17.00
2017-10-04T11:33:03.913Z,17.30
2017-10-04T11:35:32.749Z,17.80
2017-10-04T11:38:01.609Z,18.10
2017-10-04T11:40:29.714Z,18.20
2017-10-04T11:42:57.786Z,18.90
2017-10-04T11:45:26.617Z,19.80
2017-10-04T11:47:55.482Z,20.20
2017-10-04T11:50:23.555Z,20.00
2017-10-04T11:52:51.625Z,20.40
2017-10-04T11:57:49.807Z,21.20
2017-10-04T12:00:18.285Z,20.30
2017-10-04T12:02:46.362Z,19.00
2017-10-04T12:05:14.461Z,18.70
2017-10-04T12:07:42.530Z,18.40
2017-10-04T12:10:12.113Z,17.70
2017-10-04T12:12:40.209Z,17.10
2017-10-04T12:15:08.279Z,16.80
2017-10-04T12:17:36.349Z,16.50
2017-10-04T12:20:04.858Z,16.70
2017-10-04T12:22:33.721Z,16.90
2017-10-04T12:25:01.797Z,16.90
2017-10-04T12:27:30.260Z,16.60
2017-10-04T12:29:58.354Z,16.40
2017-10-04T12:32:26.446Z,16.30
2017-10-04T12:34:55.286Z,16.20
2017-10-04T12:37:23.394Z,16.10
2017-10-04T12:39:51.486Z,16.00
2017-10-04T12:42:20.330Z,16.30
2017-10-04T12:44:48.425Z,16.30
2017-10-04T12:47:16.499Z,16.20
2017-10-04T12:49:44.574Z,16.20
2017-10-04T12:52:13.068Z,16.20
2017-10-04T12:54:41.534Z,17.10
2017-10-04T12:57:09.599Z,17.00
2017-10-04T12:59:39.193Z,17.50
2017-10-04T13:02:07.270Z,18.40
2017-10-04T13:04:35.378Z,18.90
2017-10-04T13:07:04.212Z,19.80
2017-10-04T13:09:32.294Z,19.80
2017-10-04T13:12:00.386Z,20.00
2017-10-04T13:14:28.461Z,20.80
2017-10-04T13:16:56.572Z,21.10
2017-10-04T13:19:24.646Z,20.90
2017-10-04T13:21:52.714Z,21.10
2017-10-04T13:24:21.566Z,21.70
2017-10-04T13:26:49.642Z,20.50
2017-10-04T13:29:18.137Z,19.40
2017-10-04T13:31:46.610Z,18.60
2017-10-04T13:34:14.689Z,18.30
2017-10-04T13:36:43.221Z,18.30
2017-10-04T13:39:12.413Z,18.40
2017-10-04T13:41:40.550Z,18.70
2017-10-04T13:44:09.401Z,18.80
2017-10-04T13:46:37.507Z,18.50
2017-10-04T13:49:06.350Z,18.20
2017-10-04T13:51:35.569Z,17.70
2017-10-04T13:54:03.673Z,17.30
2017-10-04T13:56:32.510Z,17.10
2017-10-04T13:59:00.602Z,16.80
2017-10-04T14:01:28.677Z,16.60
2017-10-04T14:03:56.774Z,16.60
2017-10-04T14:08:54.169Z,16.60
2017-10-04T14:11:22.667Z,16.50
2017-10-04T14:13:51.529Z,16.50
2017-10-04T14:16:20.374Z,16.50
2017-10-04T14:18:48.501Z,16.40
2017-10-04T14:21:16.573Z,16.40
2017-10-04T14:23:44.685Z,16.40
2017-10-04T14:26:12.753Z,16.40
2017-10-04T14:28:41.649Z,16.30
2017-10-04T14:31:10.133Z,16.20
2017-10-04T14:33:38.226Z,16.00
2017-10-04T14:36:07.826Z,16.00
2017-10-04T14:38:35.906Z,16.10
2017-10-04T14:41:04.002Z,16.10
2017-10-04T14:43:32.869Z,16.00
2017-10-04T14:46:01.710Z,16.00
2017-10-04T14:48:30.174Z,16.00
2017-10-04T14:50:58.278Z,15.90
2017-10-04T14:53:26.746Z,15.90
2017-10-04T14:55:54.818Z,15.70
2017-10-04T14:58:22.937Z,15.60
2017-10-04T15:00:52.522Z,15.50
2017-10-04T15:03:20.589Z,15.50
2017-10-04T15:05:49.314Z,15.60
2017-10-04T15:08:17.381Z,15.60
2017-10-04T15:10:45.469Z,15.50
2017-10-04T15:13:15.121Z,15.40
2017-10-04T15:15:44.326Z,15.30
2017-10-04T15:18:13.179Z,15.30
2017-10-04T15:20:42.033Z,15.30
2017-10-04T15:23:10.102Z,15.10
2017-10-04T15:25:38.206Z,15.00
2017-10-04T15:28:06.298Z,15.00
2017-10-04T15:30:34.369Z,15.00
2017-10-04T15:33:02.858Z,14.90
2017-10-04T15:35:31.693Z,14.90
2017-10-04T15:37:59.790Z,14.90
2017-10-04T15:40:28.253Z,14.80
2017-10-04T15:42:56.323Z,14.80
2017-10-04T15:45:24.410Z,14.70
2017-10-04T15:47:52.939Z,14.60
2017-10-04T15:50:21.446Z,14.60
2017-10-04T15:52:49.912Z,14.50
2017-10-04T15:55:18.377Z,14.50
2017-10-04T15:57:46.462Z,14.40
2017-10-04T16:00:14.542Z,14.40
2017-10-04T16:02:42.650Z,14.40
2017-10-04T16:05:11.491Z,14.40
2017-10-04T16:10:09.577Z,14.30
2017-10-04T16:12:38.522Z,14.30
2017-10-04T16:15:07.382Z,14.30
2017-10-04T16:17:35.482Z,14.20
2017-10-04T16:20:03.550Z,14.10
2017-10-04T16:22:32.398Z,14.20
2017-10-04T16:25:00.498Z,14.20
2017-10-04T16:27:28.590Z,14.10
2017-10-04T16:29:57.430Z,14.10
2017-10-04T16:32:25.513Z,14.10
2017-10-04T16:34:53.598Z,14.10
2017-10-04T16:37:21.678Z,14.10
2017-10-04T16:39:49.785Z,14.00
2017-10-04T16:42:18.258Z,13.90
2017-10-04T16:44:46.734Z,14.00
2017-10-04T16:49:44.190Z,13.90
2017-10-04T16:52:12.332Z,13.90
2017-10-04T16:54:41.502Z,13.80
2017-10-04T16:57:09.595Z,13.80
2017-10-04T16:59:37.682Z,13.80
2017-10-04T17:02:06.558Z,13.80
2017-10-04T17:04:34.622Z,13.70
2017-10-04T17:07:03.863Z,13.80
2017-10-04T17:09:31.939Z,13.70
2017-10-04T17:12:00.050Z,13.70
2017-10-04T17:14:28.134Z,13.70
2017-10-04T17:16:56.606Z,13.70
2017-10-04T17:19:24.710Z,13.70
2017-10-04T17:21:53.914Z,13.60
2017-10-04T17:24:22.030Z,13.60
2017-10-04T17:26:51.440Z,13.60
2017-10-04T17:29:20.268Z,13.60
2017-10-04T17:31:49.126Z,13.50
2017-10-04T17:34:17.965Z,13.60
2017-10-04T17:36:46.459Z,13.50
2017-10-04T17:39:14.530Z,13.50
2017-10-04T17:41:42.622Z,13.50
2017-10-04T17:44:11.454Z,13.50
2017-10-04T17:46:39.570Z,13.40
2017-10-04T17:49:07.642Z,13.40
2017-10-04T17:51:35.761Z,13.40
2017-10-04T17:54:03.854Z,13.40
2017-10-04T17:56:31.933Z,13.40
2017-10-04T17:59:00.025Z,13.50
2017-10-04T18:01:29.270Z,13.50
2017-10-04T18:03:58.585Z,13.50
2017-10-04T18:06:26.685Z,13.40
2017-10-04T18:08:54.758Z,13.40
2017-10-04T18:11:22.826Z,13.40
2017-10-04T18:13:51.689Z,13.40
2017-10-04T18:16:19.771Z,13.40
2017-10-04T18:18:47.870Z,13.40
2017-10-04T18:21:16.733Z,13.40
2017-10-04T18:23:44.838Z,13.40
2017-10-04T18:26:13.312Z,13.30
2017-10-04T18:28:41.382Z,13.40
2017-10-04T18:31:09.470Z,13.40
2017-10-04T18:33:37.550Z,13.30
2017-10-04T18:36:05.650Z,13.30
2017-10-04T18:38:34.485Z,13.30
2017-10-04T18:41:03.322Z,13.30
2017-10-04T18:43:32.197Z,13.20
2017-10-04T18:46:00.269Z,13.20
2017-10-04T18:48:28.358Z,13.20
2017-10-04T18:50:57.189Z,13.20
2017-10-04T18:53:25.321Z,13.20
2017-10-04T18:55:54.268Z,13.20
2017-10-04T18:58:22.467Z,13.10
2017-10-04T19:00:50.549Z,13.00
2017-10-04T19:03:18.613Z,13.00
2017-10-04T19:05:46.681Z,13.00
2017-10-04T19:08:14.793Z,13.00
2017-10-04T19:10:42.870Z,13.00
2017-10-04T19:13:12.081Z,12.90
2017-10-04T19:15:40.193Z,13.00
2017-10-04T19:18:09.769Z,12.90
2017-10-04T19:20:37.846Z,12.90
2017-10-04T19:23:05.938Z,12.90
2017-10-04T19:25:34.013Z,12.90
2017-10-04T19:28:02.111Z,12.90
2017-10-04T19:30:31.698Z,12.90
2017-10-04T19:32:59.774Z,12.90
2017-10-04T19:35:28.636Z,12.90
2017-10-04T19:37:56.717Z,12.90
2017-10-04T19:40:24.874Z,12.80
2017-10-04T19:42:52.942Z,12.80
2017-10-04T19:45:22.150Z,12.80
2017-10-04T19:47:50.241Z,12.80
2017-10-04T19:50:18.314Z,12.80
2017-10-04T19:52:46.802Z,12.80
2017-10-04T19:55:15.059Z,12.80
2017-10-04T19:57:43.151Z,12.80
2017-10-04T20:00:11.637Z,12.80
2017-10-04T20:02:39.713Z,12.80
2017-10-04T20:05:08.206Z,12.80
2017-10-04T20:07:37.041Z,12.80
2017-10-04T20:10:05.514Z,12.80
2017-10-04T20:12:33.606Z,12.90
2017-10-04T20:15:01.677Z,12.80
2017-10-04T20:17:29.769Z,12.90
2017-10-04T20:19:58.238Z,12.90
2017-10-04T20:22:26.341Z,12.90
2017-10-04T20:24:55.174Z,12.90
2017-10-04T20:27:23.246Z,12.90
2017-10-04T20:29:52.473Z,13.00
2017-10-04T20:32:20.543Z,13.10
2017-10-04T20:34:48.626Z,13.00
2017-10-04T20:39:46.827Z,13.10
2017-10-04T20:42:14.889Z,13.10
2017-10-04T20:44:42.994Z,13.10
2017-10-04T20:47:11.829Z,13.10
2017-10-04T20:49:39.901Z,13.10
2017-10-04T20:52:08.381Z,13.10
2017-10-04T20:54:36.458Z,13.20
2017-10-04T20:57:04.942Z,13.20
2017-10-04T20:59:33.048Z,13.20
2017-10-04T21:02:01.514Z,13.20
2017-10-04T21:06:59.386Z,13.20
2017-10-04T21:15:39.079Z,13.50
2017-10-04T21:18:07.151Z,13.60
2017-10-04T21:20:35.257Z,13.60
2017-10-04T21:25:33.442Z,13.40
2017-10-04T21:28:01.579Z,13.30
2017-10-04T21:30:29.655Z,13.20
2017-10-04T21:32:57.734Z,13.20
2017-10-04T21:35:25.839Z,13.20
2017-10-04T21:37:53.917Z,13.10
2017-10-04T21:40:22.023Z,13.20
2017-10-04T21:42:50.093Z,13.20
2017-10-04T21:45:18.195Z,13.10
2017-10-04T21:47:46.266Z,13.10
2017-10-04T21:50:14.358Z,13.10
2017-10-04T21:52:43.946Z,13.00
2017-10-04T21:55:12.038Z,13.00
2017-10-04T21:57:40.114Z,12.90
2017-10-04T22:00:08.214Z,13.00
2017-10-04T22:02:37.054Z,13.00
2017-10-04T22:05:05.135Z,13.00
2017-10-04T22:07:33.226Z,12.90
2017-10-04T22:10:01.300Z,13.00
2017-10-04T22:12:29.394Z,13.10
2017-10-04T22:14:58.243Z,13.00
2017-10-04T22:17:26.735Z,13.00
2017-10-04T22:19:54.809Z,13.00
2017-10-04T22:22:22.885Z,13.00
2017-10-04T22:24:50.994Z,13.00
2017-10-04T22:27:19.829Z,13.00
2017-10-04T22:29:48.675Z,12.90
2017-10-04T22:32:16.781Z,13.00
2017-10-04T22:34:44.854Z,12.90
2017-10-04T22:37:12.938Z,13.00
2017-10-04T22:39:41.039Z,12.90
2017-10-04T22:42:09.122Z,13.00
2017-10-04T22:44:37.607Z,12.90
2017-10-04T22:47:06.851Z,12.90
2017-10-04T22:49:34.922Z,12.90
2017-10-04T22:52:02.998Z,12.90
2017-10-04T22:54:31.111Z,12.80
2017-10-04T22:56:59.958Z,12.80
2017-10-04T22:59:28.034Z,12.80
2017-10-04T23:01:56.129Z,12.80
2017-10-04T23:04:24.211Z,12.80
2017-10-04T23:06:52.278Z,12.70
2017-10-04T23:09:20.387Z,12.70
2017-10-04T23:11:48.463Z,12.80
2017-10-04T23:14:16.936Z,12.80
2017-10-04T23:16:45.042Z,12.80
2017-10-04T23:19:13.131Z,12.70
2017-10-04T23:21:41.199Z,12.80
2017-10-04T23:24:09.294Z,12.70
2017-10-04T23:26:37.375Z,12.70
2017-10-04T23:29:06.234Z,12.70
2017-10-04T23:31:34.318Z,12.60
2017-10-04T23:34:02.422Z,12.70
2017-10-04T23:36:31.275Z,12.70
2017-10-04T23:38:59.355Z,12.70
2017-10-04T23:41:27.442Z,12.70
2017-10-04T23:43:55.566Z,12.70
2017-10-04T23:46:23.663Z,12.70
2017-10-04T23:48:52.132Z,12.70
2017-10-04T23:51:20.222Z,12.70
2017-10-04T23:53:48.321Z,12.70
2017-10-04T23:56:17.162Z,12.70
2017-10-04T23:58:46.399Z,12.70
